Time;durP1;ratioP1;P1;durP2;ratioP2;P2;SDS_P1;SDS_P2;PMS_P1;PMS_P2;Temp;Humidity;BMP_temperature;BMP_pressure;BME280_temperature;BME280_humidity;BME280_pressure;Samples;Min_cycle;Max_cycle;Signal;HPM_P1;HPM_P2
2022/08/30 00:03:11;;;;;;;12.80;4.55;;;;;;;;;;5282812;28;20479;-67
2022/08/30 00:05:43;;;;;;;7.00;3.60;;;;;;;;;;5281427;28;20095;-68
2022/08/30 00:08:14;;;;;;;8.98;4.13;;;;;;;;;;5282309;28;20098;-68
2022/08/30 00:10:45;;;;;;;9.75;4.20;;;;;;;;;;5281429;28;20031;-67
2022/08/30 00:13:18;;;;;;;7.63;3.88;;;;;;;;;;5281602;28;20384;-67
2022/08/30 00:15:49;;;;;;;8.82;3.60;;;;;;;;;;5281621;28;20065;-68
2022/08/30 00:18:21;;;;;;;8.95;3.90;;;;;;;;;;5282512;28;20108;-68
2022/08/30 00:20:52;;;;;;;8.82;3.88;;;;;;;;;;5281462;28;20019;-68
2022/08/30 00:23:24;;;;;;;9.43;3.65;;;;;;;;;;5281688;28;20029;-68
2022/08/30 00:25:55;;;;;;;9.05;3.83;;;;;;;;;;5281864;28;20027;-69
2022/08/30 00:28:27;;;;;;;7.03;3.55;;;;;;;;;;5280955;28;20024;-69
2022/08/30 00:30:58;;;;;;;8.75;3.50;;;;;;;;;;5282141;28;20362;-69
2022/08/30 00:33:30;;;;;;;7.00;3.17;;;;;;;;;;5281357;28;20071;-69
2022/08/30 00:36:01;;;;;;;12.00;4.22;;;;;;;;;;5281512;28;20452;-69
2022/08/30 00:38:32;;;;;;;10.43;4.00;;;;;;;;;;5280861;28;20024;-69
2022/08/30 00:41:03;;;;;;;7.87;3.53;;;;;;;;;;5281301;28;20019;-68
2022/08/30 00:43:35;;;;;;;8.23;3.90;;;;;;;;;;5281063;28;20263;-68
2022/08/30 00:46:07;;;;;;;10.75;3.85;;;;;;;;;;5281556;28;20040;-68
2022/08/30 00:48:41;;;;;;;14.55;3.40;;;;;;;;;;5280821;28;20129;-68
2022/08/30 00:51:13;;;;;;;10.52;3.38;;;;;;;;;;5281322;28;20467;-68
2022/08/30 00:53:46;;;;;;;9.27;3.50;;;;;;;;;;5280687;28;20112;-68
2022/08/30 00:56:18;;;;;;;6.75;3.10;;;;;;;;;;5281311;28;20459;-68
2022/08/30 00:58:51;;;;;;;9.77;3.00;;;;;;;;;;5280931;28;20016;-68
2022/08/30 01:01:23;;;;;;;6.50;2.92;;;;;;;;;;5281430;28;20070;-68
2022/08/30 01:03:55;;;;;;;6.50;3.42;;;;;;;;;;5280709;28;20017;-68
2022/08/30 01:06:26;;;;;;;5.55;2.95;;;;;;;;;;5280279;28;20048;-68
2022/08/30 01:08:59;;;;;;;9.00;3.72;;;;;;;;;;5280657;28;20418;-69
2022/08/30 01:11:31;;;;;;;7.53;2.90;;;;;;;;;;5280659;28;20107;-67
2022/08/30 01:14:03;;;;;;;11.52;3.65;;;;;;;;;;5280437;28;20033;-68
2022/08/30 01:16:35;;;;;;;8.40;2.92;;;;;;;;;;5280011;28;20343;-68
2022/08/30 01:19:12;;;;;;;5.28;2.85;;;;;;;;;;5280827;28;20024;-68
2022/08/30 01:21:53;;;;;;;7.43;2.83;;;;;;;;;;5280257;28;20081;-68
2022/08/30 01:24:24;;;;;;;9.43;3.05;;;;;;;;;;5279924;28;20020;-69
2022/08/30 01:26:56;;;;;;;7.88;3.25;;;;;;;;;;5280535;28;20023;-68
2022/08/30 01:29:27;;;;;;;5.50;2.72;;;;;;;;;;5280280;28;20070;-68
2022/08/30 01:31:58;;;;;;;6.20;2.80;;;;;;;;;;5280044;28;20060;-68
2022/08/30 01:34:29;;;;;;;6.82;2.55;;;;;;;;;;5279955;28;20447;-68
2022/08/30 01:37:01;;;;;;;7.15;3.25;;;;;;;;;;5280431;28;20100;-69
2022/08/30 01:39:32;;;;;;;9.57;3.28;;;;;;;;;;5280783;28;20278;-69
2022/08/30 01:42:03;;;;;;;6.78;3.17;;;;;;;;;;5281052;28;20069;-69
2022/08/30 01:44:34;;;;;;;7.10;3.63;;;;;;;;;;5280477;28;20020;-69
2022/08/30 01:47:06;;;;;;;7.10;3.03;;;;;;;;;;5281230;28;20099;-69
2022/08/30 01:49:38;;;;;;;6.50;2.90;;;;;;;;;;5281134;28;20278;-69
2022/08/30 01:52:09;;;;;;;6.30;3.33;;;;;;;;;;5280939;28;20263;-68
2022/08/30 01:54:41;;;;;;;6.22;2.90;;;;;;;;;;5280735;28;20111;-68
2022/08/30 01:57:15;;;;;;;6.10;3.10;;;;;;;;;;5281321;28;20013;-68
2022/08/30 01:59:48;;;;;;;4.93;2.75;;;;;;;;;;5280167;28;20016;-68
2022/08/30 02:02:22;;;;;;;9.00;3.63;;;;;;;;;;5281328;28;20017;-68
2022/08/30 02:04:55;;;;;;;5.25;3.47;;;;;;;;;;5280746;28;20043;-68
2022/08/30 02:07:26;;;;;;;4.80;3.00;;;;;;;;;;5280200;28;20219;-68
2022/08/30 02:09:57;;;;;;;9.02;2.97;;;;;;;;;;5280907;28;20141;-68
2022/08/30 02:12:29;;;;;;;5.93;3.10;;;;;;;;;;5280222;28;20412;-68
2022/08/30 02:15:00;;;;;;;6.57;3.30;;;;;;;;;;5281463;28;20274;-68
2022/08/30 02:17:32;;;;;;;4.55;3.08;;;;;;;;;;5280377;28;20031;-68
2022/08/30 02:20:04;;;;;;;6.38;3.20;;;;;;;;;;5280663;28;20017;-68
2022/08/30 02:22:35;;;;;;;6.38;3.33;;;;;;;;;;5280349;28;20016;-68
2022/08/30 02:25:07;;;;;;;5.78;3.15;;;;;;;;;;5281311;28;20044;-68
2022/08/30 02:27:38;;;;;;;6.72;3.58;;;;;;;;;;5280184;28;20066;-68
2022/08/30 02:30:10;;;;;;;6.18;3.50;;;;;;;;;;5280984;28;20025;-68
2022/08/30 02:32:41;;;;;;;7.50;3.67;;;;;;;;;;5280406;28;20381;-68
2022/08/30 02:35:12;;;;;;;8.53;3.10;;;;;;;;;;5280341;28;20028;-68
2022/08/30 02:37:43;;;;;;;6.53;3.38;;;;;;;;;;5280407;28;20316;-68
2022/08/30 02:40:17;;;;;;;5.32;3.40;;;;;;;;;;5280708;28;20036;-68
2022/08/30 02:42:48;;;;;;;4.93;2.78;;;;;;;;;;5280349;28;20370;-68
2022/08/30 02:45:19;;;;;;;7.22;3.60;;;;;;;;;;5280630;28;20091;-68
2022/08/30 02:47:50;;;;;;;7.10;3.53;;;;;;;;;;5279682;28;20032;-68
2022/08/30 02:50:22;;;;;;;5.85;3.08;;;;;;;;;;5280572;28;20464;-68
2022/08/30 02:52:53;;;;;;;7.50;3.17;;;;;;;;;;5283306;28;20387;-67
2022/08/30 02:55:25;;;;;;;6.10;3.75;;;;;;;;;;5283796;28;20016;-68
2022/08/30 02:57:56;;;;;;;5.20;3.42;;;;;;;;;;5284382;28;20025;-68
2022/08/30 03:00:27;;;;;;;6.18;4.10;;;;;;;;;;5284212;28;20379;-68
2022/08/30 03:02:59;;;;;;;8.07;4.53;;;;;;;;;;5284145;28;20696;-68
2022/08/30 03:05:30;;;;;;;7.65;4.13;;;;;;;;;;5283440;28;20045;-68
2022/08/30 03:08:02;;;;;;;5.05;4.40;;;;;;;;;;5284476;28;20329;-68
2022/08/30 03:10:33;;;;;;;9.68;3.95;;;;;;;;;;5283177;28;20024;-68
2022/08/30 03:13:06;;;;;;;6.78;4.45;;;;;;;;;;5283997;28;20024;-68
2022/08/30 03:15:38;;;;;;;6.65;4.50;;;;;;;;;;5283356;28;20092;-68
2022/08/30 03:18:10;;;;;;;8.43;3.72;;;;;;;;;;5284363;28;20036;-68
2022/08/30 03:20:41;;;;;;;7.20;4.43;;;;;;;;;;5283399;28;20455;-68
2022/08/30 03:23:12;;;;;;;5.28;3.67;;;;;;;;;;5283497;28;20025;-68
2022/08/30 03:25:44;;;;;;;8.30;3.88;;;;;;;;;;5283307;28;20352;-68
2022/08/30 03:28:16;;;;;;;7.03;3.30;;;;;;;;;;5284007;28;20027;-68
2022/08/30 03:30:47;;;;;;;5.72;4.13;;;;;;;;;;5282910;28;20020;-68
2022/08/30 03:33:18;;;;;;;7.68;3.83;;;;;;;;;;5283624;28;20017;-69
2022/08/30 03:35:49;;;;;;;6.67;4.10;;;;;;;;;;5283602;28;20101;-68
2022/08/30 03:38:20;;;;;;;6.30;3.55;;;;;;;;;;5283226;28;20275;-68
2022/08/30 03:40:52;;;;;;;6.45;4.22;;;;;;;;;;5283169;28;20450;-68
2022/08/30 03:43:23;;;;;;;5.03;4.23;;;;;;;;;;5283699;28;20097;-68
2022/08/30 03:45:54;;;;;;;6.60;4.63;;;;;;;;;;5282752;28;20271;-68
2022/08/30 03:48:25;;;;;;;6.68;4.35;;;;;;;;;;5283036;28;20261;-68
2022/08/30 03:50:57;;;;;;;6.32;4.53;;;;;;;;;;5283252;28;20273;-67
2022/08/30 03:53:28;;;;;;;5.00;4.50;;;;;;;;;;5282803;28;20077;-68
2022/08/30 03:55:59;;;;;;;6.67;4.63;;;;;;;;;;5283704;28;20285;-68
2022/08/30 03:58:30;;;;;;;7.87;5.00;;;;;;;;;;5282245;28;20266;-68
2022/08/30 04:01:02;;;;;;;6.18;5.18;;;;;;;;;;5283392;28;20266;-68
2022/08/30 04:03:33;;;;;;;11.02;5.50;;;;;;;;;;5282259;28;20053;-68
2022/08/30 04:06:04;;;;;;;7.97;5.30;;;;;;;;;;5282519;28;20395;-68
2022/08/30 04:08:36;;;;;;;9.68;5.50;;;;;;;;;;5282486;28;20472;-67
2022/08/30 04:11:07;;;;;;;6.72;5.57;;;;;;;;;;5283175;28;20021;-69
2022/08/30 04:13:38;;;;;;;5.88;5.32;;;;;;;;;;5281864;28;20045;-67
2022/08/30 04:16:09;;;;;;;6.17;5.57;;;;;;;;;;5283032;28;20592;-67
2022/08/30 04:18:40;;;;;;;8.68;5.32;;;;;;;;;;5282577;28;20383;-68
2022/08/30 04:21:11;;;;;;;6.25;5.25;;;;;;;;;;5282410;28;20027;-67
2022/08/30 04:23:43;;;;;;;6.55;5.95;;;;;;;;;;5282049;28;20286;-67
2022/08/30 04:26:14;;;;;;;6.82;6.00;;;;;;;;;;5282426;28;20029;-67
2022/08/30 04:28:45;;;;;;;7.30;5.45;;;;;;;;;;5282217;28;20025;-67
2022/08/30 04:31:17;;;;;;;10.57;6.53;;;;;;;;;;5282743;28;20016;-68
2022/08/30 04:33:49;;;;;;;8.02;6.45;;;;;;;;;;5281434;28;20308;-68
2022/08/30 04:36:21;;;;;;;7.72;6.40;;;;;;;;;;5282588;28;20222;-68
2022/08/30 04:38:52;;;;;;;6.97;6.15;;;;;;;;;;5282038;28;20132;-67
2022/08/30 04:41:23;;;;;;;8.27;6.50;;;;;;;;;;5281828;28;20024;-68
2022/08/30 04:43:54;;;;;;;8.73;6.55;;;;;;;;;;5281674;28;20368;-67
2022/08/30 04:46:25;;;;;;;6.45;5.95;;;;;;;;;;5281654;28;20021;-68
2022/08/30 04:48:56;;;;;;;8.13;7.00;;;;;;;;;;5281672;28;20038;-68
2022/08/30 04:51:28;;;;;;;7.20;6.50;;;;;;;;;;5281499;28;20459;-68
2022/08/30 04:53:59;;;;;;;8.65;6.40;;;;;;;;;;5281613;28;20116;-68
2022/08/30 04:56:30;;;;;;;7.50;6.67;;;;;;;;;;5281476;28;20020;-68
2022/08/30 04:59:01;;;;;;;10.23;7.73;;;;;;;;;;5282044;28;20328;-68
2022/08/30 05:01:32;;;;;;;8.93;6.82;;;;;;;;;;5281052;28;20749;-68
2022/08/30 05:04:05;;;;;;;8.57;7.40;;;;;;;;;;5281997;28;20036;-68
2022/08/30 05:06:37;;;;;;;10.18;8.02;;;;;;;;;;5281306;28;20044;-68
2022/08/30 05:09:08;;;;;;;8.80;7.65;;;;;;;;;;5281285;28;20474;-68
2022/08/30 05:11:42;;;;;;;10.18;8.02;;;;;;;;;;5281111;28;20052;-68
2022/08/30 05:14:13;;;;;;;8.82;7.93;;;;;;;;;;5281631;28;20033;-67
2022/08/30 05:16:45;;;;;;;8.50;7.80;;;;;;;;;;5280035;28;20028;-67
2022/08/30 05:19:16;;;;;;;11.45;8.52;;;;;;;;;;5281464;28;20270;-68
2022/08/30 05:21:47;;;;;;;9.83;8.67;;;;;;;;;;5281209;28;20013;-68
2022/08/30 05:24:18;;;;;;;8.27;7.45;;;;;;;;;;5281298;28;20263;-68
2022/08/30 05:26:49;;;;;;;8.98;8.02;;;;;;;;;;5281089;28;20323;-68
2022/08/30 05:29:20;;;;;;;9.40;8.50;;;;;;;;;;5281261;28;20285;-68
2022/08/30 05:31:51;;;;;;;11.45;8.18;;;;;;;;;;5280647;28;20273;-68
2022/08/30 05:34:23;;;;;;;15.15;9.55;;;;;;;;;;5281339;28;20294;-68
2022/08/30 05:36:54;;;;;;;9.50;8.60;;;;;;;;;;5280786;28;20270;-68
2022/08/30 05:39:25;;;;;;;8.70;8.00;;;;;;;;;;5280541;28;20048;-68
2022/08/30 05:41:57;;;;;;;9.88;8.82;;;;;;;;;;5281577;28;20023;-68
2022/08/30 05:44:28;;;;;;;8.85;7.95;;;;;;;;;;5280410;28;20048;-69
2022/08/30 05:46:59;;;;;;;8.83;8.03;;;;;;;;;;5281504;28;20078;-68
2022/08/30 05:49:30;;;;;;;10.35;9.07;;;;;;;;;;5280966;28;20291;-68
2022/08/30 05:52:02;;;;;;;11.70;8.68;;;;;;;;;;5280573;28;20279;-67
2022/08/30 05:54:33;;;;;;;9.85;8.85;;;;;;;;;;5280307;28;20649;-67
2022/08/30 05:57:05;;;;;;;10.95;9.27;;;;;;;;;;5280988;28;20460;-67
2022/08/30 05:59:36;;;;;;;9.47;8.57;;;;;;;;;;5280235;28;20750;-67
2022/08/30 06:02:08;;;;;;;10.43;9.32;;;;;;;;;;5281103;28;20281;-66
2022/08/30 06:04:39;;;;;;;10.55;9.30;;;;;;;;;;5279925;28;20027;-66
2022/08/30 06:07:10;;;;;;;12.10;9.13;;;;;;;;;;5281069;28;20036;-70
2022/08/30 06:09:41;;;;;;;10.77;9.70;;;;;;;;;;5280437;28;20408;-68
2022/08/30 06:12:12;;;;;;;9.85;9.00;;;;;;;;;;5280640;28;20274;-68
2022/08/30 06:14:44;;;;;;;10.40;9.43;;;;;;;;;;5280175;28;20033;-67
2022/08/30 06:17:15;;;;;;;10.27;9.27;;;;;;;;;;5281148;28;20301;-67
2022/08/30 06:19:46;;;;;;;10.50;9.50;;;;;;;;;;5279775;28;20738;-67
2022/08/30 06:22:17;;;;;;;9.93;9.02;;;;;;;;;;5275081;28;20545;-66
2022/08/30 06:24:48;;;;;;;9.93;8.97;;;;;;;;;;5278346;28;20623;-67
2022/08/30 06:27:20;;;;;;;11.55;9.75;;;;;;;;;;5282872;28;20259;-67
2022/08/30 06:29:51;;;;;;;9.85;9.02;;;;;;;;;;5283719;28;20028;-67
2022/08/30 06:32:22;;;;;;;9.88;8.80;;;;;;;;;;5284161;28;20274;-67
2022/08/30 06:34:53;;;;;;;10.00;9.18;;;;;;;;;;5283740;28;20031;-67
2022/08/30 06:37:25;;;;;;;11.50;10.32;;;;;;;;;;5284109;28;20310;-67
2022/08/30 06:39:57;;;;;;;10.32;9.30;;;;;;;;;;5284203;28;20630;-67
2022/08/30 06:42:30;;;;;;;11.77;9.25;;;;;;;;;;5284061;28;20086;-67
2022/08/30 06:45:02;;;;;;;10.55;9.45;;;;;;;;;;5284569;28;20451;-67
2022/08/30 06:47:33;;;;;;;10.98;10.07;;;;;;;;;;5283545;28;20103;-67
2022/08/30 06:50:05;;;;;;;13.75;9.27;;;;;;;;;;5284000;28;20152;-67
2022/08/30 06:52:36;;;;;;;11.55;9.25;;;;;;;;;;5284005;28;20267;-68
2022/08/30 06:55:11;;;;;;;11.15;9.00;;;;;;;;;;5283976;28;20029;-67
2022/08/30 06:57:43;;;;;;;14.05;9.52;;;;;;;;;;5283540;28;20206;-67
2022/08/30 07:00:15;;;;;;;10.38;9.48;;;;;;;;;;5284558;28;20032;-67
2022/08/30 07:02:46;;;;;;;10.73;9.82;;;;;;;;;;5283158;28;20103;-66
2022/08/30 07:05:20;;;;;;;10.45;9.35;;;;;;;;;;5283058;28;20144;-67
2022/08/30 07:07:53;;;;;;;11.48;9.23;;;;;;;;;;5270304;28;20380;-67
2022/08/30 07:10:24;;;;;;;12.48;8.52;;;;;;;;;;5271621;28;20021;-67
2022/08/30 07:12:55;;;;;;;11.43;8.57;;;;;;;;;;5272644;28;20035;-68
2022/08/30 07:15:26;;;;;;;8.30;7.60;;;;;;;;;;5281394;28;20320;-68
2022/08/30 07:20:47;;;;;;;8.23;7.53;;;;;;;;;;5283450;28;20243;-68
2022/08/30 07:23:18;;;;;;;8.32;7.43;;;;;;;;;;5283729;28;20016;-68
2022/08/30 07:25:49;;;;;;;9.60;7.50;;;;;;;;;;5282457;28;20389;-70
2022/08/30 07:28:21;;;;;;;11.43;7.30;;;;;;;;;;5283851;28;20459;-70
2022/08/30 07:30:52;;;;;;;7.63;7.03;;;;;;;;;;5282506;28;20009;-69
2022/08/30 07:33:23;;;;;;;8.73;6.30;;;;;;;;;;5283450;28;20020;-69
2022/08/30 07:35:54;;;;;;;13.48;6.50;;;;;;;;;;5281477;28;20366;-69
2022/08/30 07:38:26;;;;;;;11.63;6.77;;;;;;;;;;5281919;28;20451;-70
2022/08/30 07:41:00;;;;;;;7.80;6.07;;;;;;;;;;5283586;28;20273;-69
2022/08/30 07:43:32;;;;;;;6.22;5.60;;;;;;;;;;5282346;28;20063;-69
2022/08/30 07:46:05;;;;;;;7.38;6.50;;;;;;;;;;5283550;28;20074;-69
2022/08/30 07:48:36;;;;;;;10.38;6.40;;;;;;;;;;5283094;28;20012;-70
2022/08/30 07:51:09;;;;;;;11.38;6.40;;;;;;;;;;5283063;28;20016;-70
2022/08/30 07:53:40;;;;;;;7.43;5.65;;;;;;;;;;5282428;28;20027;-69
2022/08/30 07:56:12;;;;;;;7.07;5.78;;;;;;;;;;5283562;28;20016;-70
2022/08/30 07:58:43;;;;;;;10.25;6.47;;;;;;;;;;5282312;28;20027;-69
2022/08/30 08:01:14;;;;;;;7.78;5.78;;;;;;;;;;5282878;28;20090;-69
2022/08/30 08:03:46;;;;;;;8.73;5.88;;;;;;;;;;5282445;28;20409;-70
2022/08/30 08:06:19;;;;;;;9.07;5.47;;;;;;;;;;5282605;28;20582;-69
2022/08/30 08:08:50;;;;;;;6.45;4.80;;;;;;;;;;5282674;28;20444;-69
2022/08/30 08:11:23;;;;;;;7.05;4.95;;;;;;;;;;5269381;28;20039;-67
2022/08/30 08:13:54;;;;;;;5.82;4.70;;;;;;;;;;5268666;28;20028;-67
2022/08/30 08:16:27;;;;;;;5.85;5.10;;;;;;;;;;5270801;28;20023;-67
2022/08/30 08:18:59;;;;;;;5.72;5.20;;;;;;;;;;5270865;28;20960;-67
2022/08/30 08:21:30;;;;;;;6.97;4.65;;;;;;;;;;5269879;28;20021;-67
2022/08/30 08:24:02;;;;;;;6.17;4.47;;;;;;;;;;5273445;28;20421;-67
2022/08/30 08:26:35;;;;;;;6.47;4.20;;;;;;;;;;5270037;28;20662;-67
2022/08/30 08:29:07;;;;;;;5.57;4.63;;;;;;;;;;5272848;28;20020;-67
2022/08/30 08:31:40;;;;;;;5.65;4.03;;;;;;;;;;5271889;28;20016;-67
2022/08/30 08:34:11;;;;;;;5.60;4.68;;;;;;;;;;5271348;28;20077;-67
2022/08/30 08:36:43;;;;;;;5.93;4.70;;;;;;;;;;5266354;28;20519;-68
2022/08/30 08:39:14;;;;;;;8.55;4.05;;;;;;;;;;5260897;28;20044;-68
2022/08/30 08:42:04;;;;;;;5.07;4.53;;;;;;;;;;5260189;28;20369;-69
2022/08/30 08:44:49;;;;;;;5.82;4.45;;;;;;;;;;5261298;28;20283;-68
2022/08/30 08:47:32;;;;;;;4.70;3.95;;;;;;;;;;5261061;28;20048;-67
2022/08/30 08:50:05;;;;;;;5.15;3.60;;;;;;;;;;5260983;28;20329;-68
2022/08/30 08:55:30;;;;;;;3.10;2.47;;;;;;;;;;5260458;28;20120;-68
2022/08/30 08:58:01;;;;;;;6.40;2.95;;;;;;;;;;5261061;28;20124;-67
2022/08/30 09:00:33;;;;;;;8.55;2.45;;;;;;;;;;5259885;28;20075;-68
2022/08/30 09:03:04;;;;;;;4.40;2.80;;;;;;;;;;5261032;28;20376;-68
2022/08/30 09:05:36;;;;;;;6.80;2.40;;;;;;;;;;5260920;28;20323;-68
2022/08/30 09:08:10;;;;;;;5.20;2.80;;;;;;;;;;5260743;28;20306;-68
2022/08/30 09:10:44;;;;;;;3.40;2.20;;;;;;;;;;5260189;28;20100;-68
2022/08/30 09:13:15;;;;;;;6.63;2.58;;;;;;;;;;5261265;28;20028;-67
2022/08/30 09:15:46;;;;;;;4.28;2.13;;;;;;;;;;5260152;28;20021;-68
2022/08/30 09:18:18;;;;;;;4.57;2.07;;;;;;;;;;5260836;28;20028;-67
2022/08/30 09:20:50;;;;;;;5.40;2.25;;;;;;;;;;5260481;28;20270;-67
2022/08/30 09:23:26;;;;;;;3.05;1.73;;;;;;;;;;5259691;28;20089;-68
2022/08/30 09:25:58;;;;;;;3.40;1.48;;;;;;;;;;5260986;28;20025;-68
2022/08/30 09:28:34;;;;;;;6.65;1.52;;;;;;;;;;5260035;28;20021;-67
2022/08/30 09:31:15;;;;;;;5.18;2.00;;;;;;;;;;5260525;28;20082;-68
2022/08/30 09:34:02;;;;;;;4.10;0.93;;;;;;;;;;5260068;28;20033;-68
2022/08/30 09:36:39;;;;;;;6.15;0.98;;;;;;;;;;5259543;28;20021;-68
2022/08/30 09:39:14;;;;;;;3.10;0.70;;;;;;;;;;5260581;28;20027;-68
2022/08/30 09:41:48;;;;;;;2.65;1.25;;;;;;;;;;5260074;28;20028;-69
2022/08/30 09:44:20;;;;;;;2.75;0.70;;;;;;;;;;5260023;28;20096;-68
2022/08/30 09:46:53;;;;;;;4.43;0.90;;;;;;;;;;5265613;28;20032;-68
2022/08/30 09:49:30;;;;;;;2.53;0.90;;;;;;;;;;5267616;28;20044;-69
2022/08/30 09:52:04;;;;;;;2.08;0.60;;;;;;;;;;5276097;28;20020;-68
2022/08/30 09:54:54;;;;;;;2.30;0.70;;;;;;;;;;5259960;28;20383;-67
2022/08/30 09:57:45;;;;;;;1.75;0.50;;;;;;;;;;5259429;28;20028;-68
2022/08/30 10:00:18;;;;;;;1.98;0.60;;;;;;;;;;5260038;28;20020;-68
2022/08/30 10:02:49;;;;;;;4.43;0.70;;;;;;;;;;5266022;28;20478;-68
2022/08/30 10:05:23;;;;;;;5.22;0.70;;;;;;;;;;5266558;28;20049;-67
2022/08/30 10:08:13;;;;;;;5.72;0.60;;;;;;;;;;5267161;28;20017;-67
2022/08/30 10:10:55;;;;;;;2.15;0.50;;;;;;;;;;5266250;28;20048;-68
2022/08/30 10:13:40;;;;;;;3.88;0.60;;;;;;;;;;5266517;28;20024;-67
2022/08/30 10:16:11;;;;;;;3.47;0.68;;;;;;;;;;5267162;28;20402;-67
2022/08/30 10:18:46;;;;;;;3.47;0.57;;;;;;;;;;5268722;28;20017;-67
2022/08/30 10:21:27;;;;;;;4.45;0.80;;;;;;;;;;5278814;28;20365;-68
2022/08/30 10:23:58;;;;;;;1.90;0.50;;;;;;;;;;5279523;28;20021;-68
2022/08/30 10:26:42;;;;;;;1.42;0.60;;;;;;;;;;5276529;28;20020;-67
2022/08/30 10:29:17;;;;;;;5.85;1.13;;;;;;;;;;5278777;28;20025;-68
2022/08/30 10:31:54;;;;;;;4.25;0.80;;;;;;;;;;5276974;28;20127;-69
2022/08/30 10:34:35;;;;;;;4.57;0.70;;;;;;;;;;5276380;28;20095;-69
2022/08/30 10:37:08;;;;;;;2.20;0.57;;;;;;;;;;5266887;28;20017;-69
2022/08/30 10:39:43;;;;;;;3.85;0.60;;;;;;;;;;5265843;28;20082;-69
2022/08/30 10:42:24;;;;;;;3.45;0.60;;;;;;;;;;5265751;28;20020;-68
2022/08/30 10:44:58;;;;;;;3.72;0.77;;;;;;;;;;5266570;28;20464;-68
2022/08/30 10:47:34;;;;;;;1.38;0.60;;;;;;;;;;5265209;28;20048;-69
2022/08/30 10:50:11;;;;;;;2.25;0.68;;;;;;;;;;5267200;28;20472;-68
2022/08/30 10:53:00;;;;;;;3.60;0.70;;;;;;;;;;5265525;28;20029;-69
2022/08/30 10:55:36;;;;;;;2.55;0.60;;;;;;;;;;5266383;28;20029;-69
2022/08/30 10:58:07;;;;;;;3.33;0.73;;;;;;;;;;5266847;28;20025;-69
2022/08/30 11:00:52;;;;;;;4.28;0.70;;;;;;;;;;5265645;28;20685;-69
2022/08/30 11:03:39;;;;;;;4.70;0.60;;;;;;;;;;5266186;28;20021;-69
2022/08/30 11:06:13;;;;;;;4.32;1.00;;;;;;;;;;5266982;28;20048;-69
2022/08/30 11:09:03;;;;;;;4.82;0.60;;;;;;;;;;5265354;28;20021;-69
2022/08/30 11:11:34;;;;;;;3.63;0.70;;;;;;;;;;5265960;28;20456;-68
2022/08/30 11:14:08;;;;;;;3.60;0.60;;;;;;;;;;5263216;28;20029;-68
2022/08/30 11:16:41;;;;;;;3.92;0.52;;;;;;;;;;5262732;28;20029;-68
2022/08/30 11:19:21;;;;;;;2.58;0.70;;;;;;;;;;5263552;28;20456;-68
2022/08/30 11:22:07;;;;;;;3.97;0.52;;;;;;;;;;5261925;28;20025;-69
2022/08/30 11:24:56;;;;;;;2.40;0.73;;;;;;;;;;5262466;28;20013;-68
2022/08/30 11:27:41;;;;;;;9.13;0.82;;;;;;;;;;5262755;28;20488;-69
2022/08/30 11:30:24;;;;;;;4.72;0.63;;;;;;;;;;5262301;28;20017;-68
2022/08/30 11:32:58;;;;;;;3.00;0.50;;;;;;;;;;5262354;28;20104;-68
2022/08/30 11:35:38;;;;;;;3.22;0.55;;;;;;;;;;5261833;28;20071;-68
2022/08/30 11:38:38;;;;;;;5.95;0.68;;;;;;;;;;5262651;28;20100;-68
2022/08/30 11:41:27;;;;;;;4.47;0.40;;;;;;;;;;5262776;28;20049;-69
2022/08/30 11:44:21;;;;;;;3.83;0.70;;;;;;;;;;5262008;28;20052;-68
2022/08/30 11:47:12;;;;;;;1.83;0.50;;;;;;;;;;5251429;28;20035;-68
2022/08/30 11:49:56;;;;;;;4.70;0.60;;;;;;;;;;5260128;28;20021;-67
2022/08/30 11:52:35;;;;;;;4.05;0.50;;;;;;;;;;5262094;28;20429;-67
2022/08/30 11:55:21;;;;;;;7.25;0.60;;;;;;;;;;5262665;28;20484;-68
2022/08/30 11:57:58;;;;;;;4.28;0.50;;;;;;;;;;5261060;28;20108;-68
2022/08/30 12:00:32;;;;;;;2.75;0.70;;;;;;;;;;5262126;28;20013;-69
2022/08/30 12:03:26;;;;;;;4.85;0.63;;;;;;;;;;5261836;28;20021;-67
2022/08/30 12:05:59;;;;;;;5.65;0.57;;;;;;;;;;5262200;28;20557;-68
2022/08/30 12:08:32;;;;;;;4.13;0.50;;;;;;;;;;5261989;28;20013;-68
2022/08/30 12:11:09;;;;;;;4.88;0.60;;;;;;;;;;5261999;28;20021;-68
2022/08/30 12:13:41;;;;;;;2.97;0.60;;;;;;;;;;5261308;28;20078;-68
2022/08/30 12:16:22;;;;;;;4.38;0.60;;;;;;;;;;5262313;28;20423;-68
2022/08/30 12:18:58;;;;;;;5.93;0.60;;;;;;;;;;5259824;28;20069;-68
2022/08/30 12:21:31;;;;;;;4.82;0.68;;;;;;;;;;5261753;28;20017;-68
2022/08/30 12:24:06;;;;;;;5.55;0.80;;;;;;;;;;5259860;28;20082;-68
2022/08/30 12:26:39;;;;;;;3.80;0.57;;;;;;;;;;5260888;28;20165;-68
2022/08/30 12:29:15;;;;;;;4.53;0.50;;;;;;;;;;5262045;28;20460;-68
2022/08/30 12:31:46;;;;;;;2.33;0.50;;;;;;;;;;5260805;28;20394;-68
2022/08/30 12:34:32;;;;;;;5.27;0.60;;;;;;;;;;5261542;28;20033;-68
2022/08/30 12:37:07;;;;;;;4.45;0.70;;;;;;;;;;5261782;28;20777;-68
2022/08/30 12:39:40;;;;;;;4.13;0.60;;;;;;;;;;5260254;28;20037;-68
2022/08/30 12:42:23;;;;;;;3.00;0.50;;;;;;;;;;5261777;28;20027;-68
2022/08/30 12:44:56;;;;;;;4.20;0.50;;;;;;;;;;5261226;28;20115;-68
2022/08/30 12:47:43;;;;;;;4.22;0.60;;;;;;;;;;5259923;28;20053;-68
2022/08/30 12:50:25;;;;;;;3.65;0.45;;;;;;;;;;5261749;28;20155;-68
2022/08/30 12:52:59;;;;;;;7.68;0.60;;;;;;;;;;5260792;28;20013;-68
2022/08/30 12:55:32;;;;;;;6.00;0.90;;;;;;;;;;5260477;28;20036;-68
2022/08/30 12:58:12;;;;;;;2.25;0.43;;;;;;;;;;5261469;28;20059;-69
2022/08/30 13:00:44;;;;;;;3.17;0.45;;;;;;;;;;5259996;28;20058;-69
2022/08/30 13:03:22;;;;;;;3.55;0.40;;;;;;;;;;5261308;28;20009;-68
2022/08/30 13:05:54;;;;;;;3.88;0.45;;;;;;;;;;5260531;28;20127;-68
2022/08/30 13:08:28;;;;;;;3.08;0.40;;;;;;;;;;5259783;28;20020;-68
2022/08/30 13:11:01;;;;;;;6.80;0.50;;;;;;;;;;5261410;28;20021;-68
2022/08/30 13:13:43;;;;;;;6.18;0.60;;;;;;;;;;5259863;28;20033;-68
2022/08/30 13:16:19;;;;;;;4.13;0.50;;;;;;;;;;5260694;28;20025;-68
2022/08/30 13:18:51;;;;;;;4.43;0.50;;;;;;;;;;5260557;28;20028;-68
2022/08/30 13:21:27;;;;;;;5.70;0.70;;;;;;;;;;5260342;28;20108;-68
2022/08/30 13:24:04;;;;;;;6.60;0.50;;;;;;;;;;5260560;28;20028;-68
2022/08/30 13:26:36;;;;;;;7.47;0.60;;;;;;;;;;5260406;28;20013;-68
2022/08/30 13:29:13;;;;;;;5.28;0.50;;;;;;;;;;5259926;28;20048;-68
2022/08/30 13:31:44;;;;;;;4.28;0.40;;;;;;;;;;5260403;28;20040;-68
2022/08/30 13:34:21;;;;;;;3.47;0.50;;;;;;;;;;5260664;28;20057;-68
2022/08/30 13:36:54;;;;;;;4.85;0.43;;;;;;;;;;5258559;28;20036;-73
2022/08/30 13:39:25;;;;;;;5.43;0.57;;;;;;;;;;5267675;28;20020;-69
2022/08/30 13:41:56;;;;;;;2.72;0.40;;;;;;;;;;5269478;28;20416;-69
2022/08/30 13:44:27;;;;;;;4.32;0.50;;;;;;;;;;5269628;28;20024;-67
2022/08/30 13:46:59;;;;;;;2.63;0.30;;;;;;;;;;5268941;28;20062;-68
2022/08/30 13:49:34;;;;;;;3.80;0.40;;;;;;;;;;5267822;28;20328;-67
2022/08/30 13:52:07;;;;;;;4.57;0.60;;;;;;;;;;5268626;28;20080;-67
2022/08/30 13:54:38;;;;;;;7.00;0.75;;;;;;;;;;5269530;28;20548;-67
2022/08/30 13:57:09;;;;;;;1.77;0.40;;;;;;;;;;5269520;28;20013;-67
2022/08/30 13:59:40;;;;;;;4.77;0.63;;;;;;;;;;5268361;28;20028;-67
2022/08/30 14:02:11;;;;;;;4.38;0.40;;;;;;;;;;5268761;28;20448;-67
2022/08/30 14:04:42;;;;;;;6.13;0.50;;;;;;;;;;5268195;28;20031;-68
2022/08/30 14:07:14;;;;;;;2.78;0.40;;;;;;;;;;5270525;28;20391;-68
2022/08/30 14:09:45;;;;;;;7.45;0.60;;;;;;;;;;5268882;28;20368;-68
2022/08/30 14:12:16;;;;;;;1.63;0.40;;;;;;;;;;5269605;28;20027;-68
2022/08/30 14:14:47;;;;;;;1.83;0.37;;;;;;;;;;5268149;28;20642;-69
2022/08/30 14:17:18;;;;;;;3.63;0.50;;;;;;;;;;5268137;28;20274;-68
2022/08/30 14:19:50;;;;;;;3.55;0.40;;;;;;;;;;5269104;28;20278;-68
2022/08/30 14:22:21;;;;;;;3.47;0.45;;;;;;;;;;5270029;28;20026;-69
2022/08/30 14:24:53;;;;;;;4.90;0.40;;;;;;;;;;5267576;28;20013;-68
2022/08/30 14:27:24;;;;;;;5.90;0.50;;;;;;;;;;5267524;28;20017;-69
2022/08/30 14:29:56;;;;;;;4.82;0.43;;;;;;;;;;5261789;28;20372;-68
2022/08/30 14:32:27;;;;;;;3.70;0.65;;;;;;;;;;5261204;28;20016;-68
2022/08/30 14:34:58;;;;;;;2.73;0.60;;;;;;;;;;5268645;28;20033;-68
2022/08/30 14:37:30;;;;;;;4.28;0.60;;;;;;;;;;5274188;28;20013;-69
2022/08/30 14:40:01;;;;;;;4.33;0.40;;;;;;;;;;5262439;28;20071;-69
2022/08/30 14:42:32;;;;;;;2.20;0.47;;;;;;;;;;5258598;28;20807;-72
2022/08/30 14:45:03;;;;;;;5.33;0.40;;;;;;;;;;5262460;28;20108;-72
2022/08/30 14:47:35;;;;;;;3.25;0.50;;;;;;;;;;5277874;28;20785;-70
2022/08/30 14:50:06;;;;;;;6.93;0.67;;;;;;;;;;5283359;28;20043;-69
2022/08/30 14:52:37;;;;;;;4.90;0.50;;;;;;;;;;5276531;28;20374;-70
2022/08/30 14:55:13;;;;;;;3.03;0.40;;;;;;;;;;5281260;28;20031;-69
2022/08/30 14:57:44;;;;;;;5.45;0.50;;;;;;;;;;5282681;28;20016;-69
2022/08/30 15:00:15;;;;;;;1.70;0.40;;;;;;;;;;5283873;28;20024;-68
2022/08/30 15:02:46;;;;;;;4.32;0.57;;;;;;;;;;5283925;28;20020;-69
2022/08/30 15:05:18;;;;;;;5.68;0.50;;;;;;;;;;5283991;28;20348;-69
2022/08/30 15:07:50;;;;;;;3.55;0.40;;;;;;;;;;5283380;28;20379;-67
2022/08/30 15:10:21;;;;;;;4.93;0.50;;;;;;;;;;5284282;28;20024;-68
2022/08/30 15:12:52;;;;;;;8.02;1.00;;;;;;;;;;5282990;28;20025;-69
2022/08/30 15:15:24;;;;;;;6.67;0.50;;;;;;;;;;5283592;28;20037;-69
2022/08/30 15:17:55;;;;;;;1.75;0.40;;;;;;;;;;5284291;28;20267;-68
2022/08/30 15:20:26;;;;;;;3.58;0.60;;;;;;;;;;5283012;28;20066;-69
2022/08/30 15:22:57;;;;;;;2.90;0.40;;;;;;;;;;5284004;28;20418;-68
2022/08/30 15:25:28;;;;;;;3.00;0.50;;;;;;;;;;5283398;28;20451;-68